createdAt,value
2019-04-07T00:01:56.424Z,99.90
2019-04-07T00:04:27.371Z,99.90
2019-04-07T00:06:58.827Z,99.90
2019-04-07T00:09:29.911Z,99.90
2019-04-07T00:12:00.883Z,99.90
2019-04-07T00:14:31.814Z,99.90
2019-04-07T00:17:03.284Z,99.90
2019-04-07T00:19:34.218Z,99.90
2019-04-07T00:22:05.268Z,99.90
2019-04-07T00:24:36.512Z,99.90
2019-04-07T00:27:07.603Z,99.90
2019-04-07T00:29:38.905Z,99.90
2019-04-07T00:32:11.109Z,99.90
2019-04-07T00:34:42.382Z,99.90
2019-04-07T00:37:14.064Z,99.90
2019-04-07T00:39:45.132Z,99.90
2019-04-07T00:42:16.196Z,99.90
2019-04-07T00:44:48.187Z,99.90
2019-04-07T00:47:19.556Z,99.90
2019-04-07T00:49:51.237Z,99.90
2019-04-07T00:52:23.889Z,99.90
2019-04-07T00:54:54.816Z,99.90
2019-04-07T00:57:26.322Z,99.90
2019-04-07T00:59:57.487Z,99.90
2019-04-07T01:02:28.590Z,99.90
2019-04-07T01:04:59.914Z,99.90
2019-04-07T01:07:31.044Z,99.90
2019-04-07T01:10:02.190Z,99.90
2019-04-07T01:12:33.633Z,99.90
2019-04-07T01:15:07.678Z,99.90
2019-04-07T01:17:39.215Z,99.90
2019-04-07T01:20:10.821Z,99.90
2019-04-07T01:22:42.001Z,99.90
2019-04-07T01:25:13.814Z,99.90
2019-04-07T01:27:45.478Z,99.90
2019-04-07T01:30:17.187Z,99.90
2019-04-07T01:32:48.392Z,99.90
2019-04-07T01:35:20.243Z,99.90
2019-04-07T01:37:51.781Z,99.90
2019-04-07T01:40:23.506Z,99.90
2019-04-07T01:42:59.780Z,99.90
2019-04-07T01:45:32.422Z,99.90
2019-04-07T01:48:18.201Z,99.90
2019-04-07T01:51:10.294Z,99.90
2019-04-07T01:53:47.114Z,99.90
2019-04-07T01:56:26.147Z,99.90
2019-04-07T01:58:58.865Z,99.90
2019-04-07T02:01:48.093Z,99.90
2019-04-07T02:04:28.076Z,99.90
2019-04-07T02:07:19.484Z,99.90
2019-04-07T02:09:52.304Z,99.90
2019-04-07T02:12:38.331Z,99.90
2019-04-07T02:15:11.338Z,99.90
2019-04-07T02:17:56.050Z,99.90
2019-04-07T02:20:45.339Z,99.90
2019-04-07T02:23:17.922Z,99.90
2019-04-07T02:25:53.509Z,99.90
2019-04-07T02:28:26.451Z,99.90
2019-04-07T02:31:09.628Z,99.90
2019-04-07T02:33:43.835Z,99.90
2019-04-07T02:36:23.935Z,99.90
2019-04-07T02:39:02.816Z,99.90
2019-04-07T02:41:36.431Z,99.90
2019-04-07T02:44:09.288Z,99.90
2019-04-07T02:46:51.627Z,99.90
2019-04-07T02:49:33.873Z,99.90
2019-04-07T02:52:12.619Z,99.90
2019-04-07T02:55:02.451Z,99.90
2019-04-07T02:57:35.981Z,99.90
2019-04-07T03:00:10.326Z,99.90
2019-04-07T03:02:45.820Z,99.90
2019-04-07T03:05:28.123Z,99.90
2019-04-07T03:08:01.571Z,99.90
2019-04-07T03:10:44.151Z,99.90
2019-04-07T03:13:33.000Z,99.90
2019-04-07T03:16:14.795Z,99.90
2019-04-07T03:19:06.600Z,99.90
2019-04-07T03:21:42.489Z,99.90
2019-04-07T03:24:21.082Z,99.90
2019-04-07T03:27:08.055Z,99.90
2019-04-07T03:29:55.748Z,99.90
2019-04-07T03:32:48.415Z,99.90
2019-04-07T03:35:34.104Z,99.90
2019-04-07T03:38:20.839Z,99.90
2019-04-07T03:40:56.956Z,99.90
2019-04-07T03:43:44.008Z,99.90
2019-04-07T03:46:22.435Z,99.90
2019-04-07T03:48:58.116Z,99.90
2019-04-07T03:51:30.633Z,99.90
2019-04-07T03:54:01.297Z,99.90
2019-04-07T03:56:37.266Z,99.90
2019-04-07T03:59:21.831Z,99.90
2019-04-07T04:01:58.072Z,99.90
2019-04-07T04:04:43.651Z,99.90
2019-04-07T04:07:29.214Z,99.90
2019-04-07T04:09:55.892Z,99.90
2019-04-07T04:12:37.576Z,99.90
2019-04-07T04:15:15.105Z,99.90
2019-04-07T04:17:46.261Z,99.90
2019-04-07T04:20:17.330Z,99.90
2019-04-07T04:22:48.575Z,99.90
2019-04-07T04:25:19.775Z,99.90
2019-04-07T04:27:51.046Z,99.90
2019-04-07T04:30:22.311Z,99.90
2019-04-07T04:32:54.014Z,99.90
2019-04-07T04:35:25.226Z,99.90
2019-04-07T04:37:56.585Z,99.90
2019-04-07T04:40:28.095Z,99.90
2019-04-07T04:42:59.331Z,99.90
2019-04-07T04:45:30.385Z,99.90
2019-04-07T04:48:02.565Z,99.90
2019-04-07T04:50:33.766Z,99.90
2019-04-07T04:53:04.735Z,99.90
2019-04-07T04:55:35.682Z,99.90
2019-04-07T04:58:07.274Z,99.90
2019-04-07T05:00:38.522Z,99.90
2019-04-07T05:03:09.771Z,99.90
2019-04-07T05:05:41.365Z,99.90
2019-04-07T05:08:12.858Z,99.90
2019-04-07T05:10:44.040Z,99.90
2019-04-07T05:13:15.000Z,99.90
2019-04-07T05:15:45.946Z,99.90
2019-04-07T05:18:17.441Z,99.90
2019-04-07T05:20:48.736Z,99.90
2019-04-07T05:23:20.398Z,99.90
2019-04-07T05:25:51.593Z,99.90
2019-04-07T05:28:22.776Z,99.90
2019-04-07T05:30:54.295Z,99.90
2019-04-07T05:33:25.498Z,99.90
2019-04-07T05:35:56.657Z,99.90
2019-04-07T05:38:27.730Z,99.90
2019-04-07T05:40:58.717Z,99.90
2019-04-07T05:43:29.714Z,99.90
2019-04-07T05:46:00.859Z,99.90
2019-04-07T05:48:32.617Z,99.90
2019-04-07T05:51:04.338Z,99.90
2019-04-07T05:53:35.348Z,99.90
2019-04-07T05:56:06.329Z,99.90
2019-04-07T05:58:38.676Z,99.90
2019-04-07T06:01:10.687Z,99.90
2019-04-07T06:03:43.523Z,99.90
2019-04-07T06:06:15.828Z,99.90
2019-04-07T06:08:48.467Z,99.90
2019-04-07T06:11:20.415Z,99.90
2019-04-07T06:13:51.931Z,99.90
2019-04-07T06:16:23.750Z,99.90
2019-04-07T06:18:55.494Z,99.90
2019-04-07T06:21:27.746Z,99.90
2019-04-07T06:24:00.598Z,99.90
2019-04-07T06:26:31.517Z,99.90
2019-04-07T06:29:02.651Z,99.90
2019-04-07T06:31:34.023Z,99.90
2019-04-07T06:34:08.172Z,99.90
2019-04-07T06:36:38.717Z,99.90
2019-04-07T06:39:09.870Z,99.90
2019-04-07T06:41:40.968Z,99.90
2019-04-07T06:44:15.867Z,99.90
2019-04-07T06:46:46.952Z,99.90
2019-04-07T06:49:19.704Z,99.90
2019-04-07T06:52:09.346Z,99.90
2019-04-07T06:54:57.281Z,99.90
2019-04-07T06:57:46.618Z,99.90
2019-04-07T07:00:36.423Z,99.90
2019-04-07T07:03:25.405Z,99.90
2019-04-07T07:06:05.676Z,99.90
2019-04-07T07:08:45.881Z,99.90
2019-04-07T07:11:26.458Z,99.90
2019-04-07T07:13:54.641Z,99.90
2019-04-07T07:16:30.820Z,99.90
2019-04-07T07:19:02.150Z,99.90
2019-04-07T07:21:48.994Z,99.90
2019-04-07T07:24:24.996Z,99.90
2019-04-07T07:26:52.936Z,99.90
2019-04-07T07:29:26.529Z,99.90
2019-04-07T07:32:02.518Z,99.90
2019-04-07T07:34:29.514Z,99.90
2019-04-07T07:37:00.635Z,99.90
2019-04-07T07:39:31.652Z,99.90
2019-04-07T07:42:02.931Z,99.90
2019-04-07T07:44:38.189Z,99.90
2019-04-07T07:47:07.966Z,99.90
2019-04-07T07:49:40.330Z,99.90
2019-04-07T07:52:11.697Z,99.90
2019-04-07T07:54:45.180Z,99.90
2019-04-07T07:57:16.104Z,99.90
2019-04-07T07:59:47.307Z,99.90
2019-04-07T08:02:19.935Z,99.90
2019-04-07T08:04:51.134Z,99.90
2019-04-07T08:07:22.177Z,99.90
2019-04-07T08:09:54.448Z,99.90
2019-04-07T08:12:25.811Z,99.90
2019-04-07T08:14:58.326Z,99.90
2019-04-07T08:17:31.650Z,99.90
2019-04-07T08:20:02.480Z,99.90
2019-04-07T08:22:39.576Z,99.90
2019-04-07T08:25:06.933Z,99.90
2019-04-07T08:27:37.875Z,99.90
2019-04-07T08:30:12.733Z,99.90
2019-04-07T08:32:43.219Z,99.90
2019-04-07T08:35:14.456Z,99.90
2019-04-07T08:37:46.486Z,99.90
2019-04-07T08:40:18.804Z,99.90
2019-04-07T08:42:50.221Z,99.90
2019-04-07T08:45:23.091Z,99.90
2019-04-07T08:47:54.075Z,99.90
2019-04-07T08:50:27.703Z,99.90
2019-04-07T08:52:57.918Z,99.90
2019-04-07T08:55:29.852Z,99.90
2019-04-07T08:58:03.683Z,99.90
2019-04-07T09:00:35.133Z,99.90
2019-04-07T09:03:12.008Z,99.90
2019-04-07T09:05:38.774Z,99.90
2019-04-07T09:08:09.728Z,99.90
2019-04-07T09:10:42.954Z,99.90
2019-04-07T09:13:14.026Z,99.90
2019-04-07T09:16:03.572Z,99.90
2019-04-07T09:18:38.970Z,99.90
2019-04-07T09:21:33.657Z,99.90
2019-04-07T09:24:02.154Z,99.90
2019-04-07T09:26:35.467Z,99.90
2019-04-07T09:29:11.611Z,99.90
2019-04-07T09:32:00.475Z,99.90
2019-04-07T09:34:34.566Z,99.90
2019-04-07T09:37:24.416Z,99.90
2019-04-07T09:40:17.397Z,99.90
2019-04-07T09:42:51.849Z,99.90
2019-04-07T09:45:32.357Z,99.90
2019-04-07T09:48:08.799Z,99.90
2019-04-07T09:50:45.988Z,99.90
2019-04-07T09:53:25.878Z,99.90
2019-04-07T09:56:01.589Z,99.90
2019-04-07T09:58:34.151Z,99.90
2019-04-07T10:01:07.807Z,99.90
2019-04-07T10:03:40.835Z,99.90
2019-04-07T10:06:22.585Z,99.90
2019-04-07T10:09:11.680Z,99.90
2019-04-07T10:11:57.417Z,99.90
2019-04-07T10:14:36.269Z,99.90
2019-04-07T10:17:17.902Z,99.90
2019-04-07T10:19:51.759Z,99.90
2019-04-07T10:22:28.806Z,99.90
2019-04-07T10:25:04.492Z,99.90
2019-04-07T10:27:54.368Z,99.90
2019-04-07T10:30:25.974Z,99.90
2019-04-07T10:32:58.632Z,99.90
2019-04-07T10:35:29.605Z,99.90
2019-04-07T10:38:02.028Z,99.90
2019-04-07T10:40:33.642Z,99.00
2019-04-07T10:43:07.197Z,95.10
2019-04-07T10:45:40.524Z,90.70
2019-04-07T10:48:13.439Z,84.80
2019-04-07T10:50:46.908Z,82.10
2019-04-07T10:53:22.750Z,78.30
2019-04-07T10:55:56.324Z,78.80
2019-04-07T10:58:31.258Z,75.30
2019-04-07T11:01:06.866Z,80.00
2019-04-07T11:03:39.511Z,78.60
2019-04-07T11:06:28.445Z,75.10
2019-04-07T11:09:17.774Z,74.10
2019-04-07T11:11:51.124Z,64.90
2019-04-07T11:14:39.981Z,57.80
2019-04-07T11:17:22.549Z,60.70
2019-04-07T11:20:03.501Z,61.10
2019-04-07T11:22:52.110Z,57.20
2019-04-07T11:25:30.448Z,53.80
2019-04-07T11:28:03.020Z,50.80
2019-04-07T11:30:38.715Z,48.90
2019-04-07T11:33:11.757Z,49.50
2019-04-07T11:36:00.770Z,49.90
2019-04-07T11:38:34.082Z,47.30
2019-04-07T11:41:05.842Z,47.80
2019-04-07T11:43:44.446Z,46.80
2019-04-07T11:46:15.349Z,45.60
2019-04-07T11:49:04.423Z,45.00
2019-04-07T11:51:40.697Z,44.80
2019-04-07T11:54:24.083Z,43.30
2019-04-07T11:56:57.343Z,43.90
2019-04-07T11:59:46.372Z,44.20
2019-04-07T12:02:24.944Z,42.00
2019-04-07T12:05:08.192Z,41.20
2019-04-07T12:07:56.476Z,43.60
2019-04-07T12:10:31.855Z,40.40
2019-04-07T12:13:14.360Z,40.70
2019-04-07T12:15:46.992Z,39.20
2019-04-07T12:18:18.913Z,39.60
2019-04-07T12:20:54.910Z,41.40
2019-04-07T12:23:44.399Z,40.60
2019-04-07T12:26:22.920Z,40.70
2019-04-07T12:28:53.958Z,40.80
2019-04-07T12:31:35.869Z,41.80
2019-04-07T12:34:17.859Z,41.60
2019-04-07T12:36:54.158Z,40.10
2019-04-07T12:39:25.627Z,40.60
2019-04-07T12:41:59.425Z,43.10
2019-04-07T12:44:33.316Z,42.30
2019-04-07T12:47:18.166Z,39.70
2019-04-07T12:50:05.957Z,38.80
2019-04-07T12:52:42.159Z,37.20
2019-04-07T12:55:17.726Z,37.00
2019-04-07T12:58:02.052Z,36.60
2019-04-07T13:00:53.686Z,35.80
2019-04-07T13:03:16.901Z,35.90
2019-04-07T13:05:47.686Z,35.70
2019-04-07T13:08:26.332Z,35.90
2019-04-07T13:11:07.505Z,36.50
2019-04-07T13:13:53.893Z,35.40
2019-04-07T13:16:35.915Z,36.10
2019-04-07T13:19:25.317Z,36.00
2019-04-07T13:22:02.224Z,36.40
2019-04-07T13:24:51.339Z,36.60
2019-04-07T13:27:32.635Z,36.20
2019-04-07T13:30:23.513Z,33.70
2019-04-07T13:33:04.906Z,34.60
2019-04-07T13:35:40.128Z,33.80
2019-04-07T13:38:28.256Z,34.50
2019-04-07T13:40:59.481Z,34.30
2019-04-07T13:43:42.682Z,36.70
2019-04-07T13:46:27.859Z,39.50
2019-04-07T13:49:13.906Z,40.40
2019-04-07T13:52:02.732Z,40.80
2019-04-07T13:54:48.400Z,40.50
2019-04-07T13:57:28.234Z,39.30
2019-04-07T14:00:17.261Z,38.50
2019-04-07T14:03:01.969Z,37.10
2019-04-07T14:05:52.434Z,36.20
2019-04-07T14:08:43.812Z,34.40
2019-04-07T14:11:27.383Z,33.20
2019-04-07T14:14:05.684Z,32.60
2019-04-07T14:16:54.805Z,33.00
2019-04-07T14:19:25.452Z,35.00
2019-04-07T14:22:08.955Z,38.00
2019-04-07T14:24:43.648Z,37.30
2019-04-07T14:27:18.726Z,36.40
2019-04-07T14:30:11.566Z,36.30
2019-04-07T14:32:47.213Z,36.50
2019-04-07T14:35:19.466Z,37.10
2019-04-07T14:37:59.386Z,36.50
2019-04-07T14:40:32.042Z,37.10
2019-04-07T14:43:08.166Z,36.80
2019-04-07T14:45:46.648Z,37.60
2019-04-07T14:48:30.106Z,37.80
2019-04-07T14:51:19.651Z,36.70
2019-04-07T14:53:53.025Z,39.60
2019-04-07T14:56:28.840Z,43.90
2019-04-07T14:59:01.833Z,45.30
2019-04-07T15:01:47.910Z,44.90
2019-04-07T15:04:19.337Z,45.00
2019-04-07T15:06:51.964Z,43.90
2019-04-07T15:09:30.578Z,43.40
2019-04-07T15:12:15.466Z,43.40
2019-04-07T15:14:36.043Z,44.00
2019-04-07T15:17:07.797Z,45.70
2019-04-07T15:19:39.744Z,45.40
2019-04-07T15:22:10.923Z,44.20
2019-04-07T15:24:42.741Z,42.80
2019-04-07T15:27:14.397Z,42.20
2019-04-07T15:29:46.789Z,42.50
2019-04-07T15:32:21.180Z,44.10
2019-04-07T15:34:52.539Z,46.20
2019-04-07T15:37:24.950Z,48.10
2019-04-07T15:39:58.959Z,48.90
2019-04-07T15:42:37.750Z,50.90
2019-04-07T15:45:02.472Z,50.70
2019-04-07T15:47:33.601Z,50.10
2019-04-07T15:50:06.085Z,49.20
2019-04-07T15:52:37.072Z,49.50
2019-04-07T15:55:08.753Z,50.90
2019-04-07T15:57:40.669Z,52.40
2019-04-07T16:00:13.401Z,52.70
2019-04-07T16:02:44.547Z,53.50
2019-04-07T16:05:15.967Z,53.00
2019-04-07T16:07:48.066Z,54.00
2019-04-07T16:10:22.841Z,53.80
2019-04-07T16:12:54.369Z,55.60
2019-04-07T16:15:26.170Z,56.40
2019-04-07T16:17:57.242Z,57.30
2019-04-07T16:20:32.473Z,58.70
2019-04-07T16:23:00.937Z,58.50
2019-04-07T16:25:32.256Z,59.20
2019-04-07T16:28:03.604Z,59.80
2019-04-07T16:30:34.635Z,61.00
2019-04-07T16:33:05.704Z,62.00
2019-04-07T16:35:36.874Z,63.70
2019-04-07T16:38:07.901Z,64.50
2019-04-07T16:40:41.353Z,64.10
2019-04-07T16:43:15.420Z,64.50
2019-04-07T16:45:45.832Z,63.30
2019-04-07T16:48:16.887Z,64.80
2019-04-07T16:50:51.099Z,63.10
2019-04-07T16:53:20.581Z,63.20
2019-04-07T16:55:55.081Z,63.90
2019-04-07T16:58:24.546Z,64.10
2019-04-07T17:00:56.027Z,65.30
2019-04-07T17:03:27.556Z,66.60
2019-04-07T17:06:01.223Z,67.90
2019-04-07T17:08:31.838Z,70.20
2019-04-07T17:11:07.854Z,70.80
2019-04-07T17:13:41.375Z,71.70
2019-04-07T17:16:12.234Z,72.40
2019-04-07T17:18:44.271Z,74.10
2019-04-07T17:21:20.445Z,74.60
2019-04-07T17:23:55.422Z,75.00
2019-04-07T17:26:24.270Z,76.70
2019-04-07T17:28:56.783Z,77.60
2019-04-07T17:31:31.822Z,79.00
2019-04-07T17:34:03.584Z,80.30
2019-04-07T17:36:34.286Z,83.30
2019-04-07T17:39:22.867Z,86.90
2019-04-07T17:41:57.231Z,90.00
2019-04-07T17:44:32.913Z,92.10
2019-04-07T17:47:05.442Z,94.50
2019-04-07T17:49:38.993Z,96.40
2019-04-07T17:52:26.604Z,99.00
2019-04-07T17:55:00.112Z,99.90
2019-04-07T17:57:51.078Z,99.90
2019-04-07T18:00:21.930Z,99.90
2019-04-07T18:02:57.173Z,99.90
2019-04-07T18:05:29.855Z,99.90
2019-04-07T18:08:00.611Z,99.90
2019-04-07T18:10:33.181Z,99.90
2019-04-07T18:13:24.773Z,99.90
2019-04-07T18:16:00.974Z,99.90
2019-04-07T18:18:39.594Z,99.90
2019-04-07T18:21:19.288Z,99.90
2019-04-07T18:24:10.498Z,99.90
2019-04-07T18:26:58.351Z,99.90
2019-04-07T18:29:34.246Z,99.90
2019-04-07T18:32:05.106Z,99.90
2019-04-07T18:34:36.498Z,99.90
2019-04-07T18:37:18.259Z,99.90
2019-04-07T18:40:06.727Z,99.90
2019-04-07T18:42:45.617Z,99.90
2019-04-07T18:45:21.729Z,99.90
2019-04-07T18:47:59.533Z,99.90
2019-04-07T18:50:30.733Z,99.90
2019-04-07T18:53:10.328Z,99.90
2019-04-07T18:55:59.515Z,99.90
2019-04-07T18:58:50.869Z,99.90
2019-04-07T19:01:24.362Z,99.90
2019-04-07T19:04:10.075Z,99.90
2019-04-07T19:06:46.091Z,99.90
2019-04-07T19:09:29.192Z,99.90
2019-04-07T19:12:16.672Z,99.90
2019-04-07T19:14:57.120Z,99.90
2019-04-07T19:17:40.475Z,99.90
2019-04-07T19:20:26.032Z,99.90
2019-04-07T19:23:02.395Z,99.90
2019-04-07T19:25:53.218Z,99.90
2019-04-07T19:28:23.878Z,99.90
2019-04-07T19:30:57.731Z,99.90
2019-04-07T19:33:42.265Z,99.90
2019-04-07T19:36:21.344Z,99.90
2019-04-07T19:38:58.456Z,99.90
2019-04-07T19:41:33.565Z,99.90
2019-04-07T19:44:34.023Z,99.90
2019-04-07T19:46:59.091Z,99.90
2019-04-07T19:49:29.637Z,99.90
2019-04-07T19:52:12.525Z,99.90
2019-04-07T19:55:01.671Z,99.90
2019-04-07T19:57:37.281Z,99.90
2019-04-07T20:00:14.676Z,99.90
2019-04-07T20:03:07.488Z,99.90
2019-04-07T20:05:50.883Z,99.90
2019-04-07T20:08:39.519Z,99.90
2019-04-07T20:11:16.643Z,99.90
2019-04-07T20:13:49.288Z,99.90
2019-04-07T20:16:28.321Z,99.90
2019-04-07T20:19:17.119Z,99.90
2019-04-07T20:21:55.114Z,99.90
2019-04-07T20:24:27.577Z,99.90
2019-04-07T20:27:04.075Z,99.90
2019-04-07T20:29:41.381Z,99.90
2019-04-07T20:32:16.543Z,99.90
2019-04-07T20:34:54.989Z,99.90
2019-04-07T20:37:30.590Z,99.90
2019-04-07T20:40:06.982Z,99.90
2019-04-07T20:42:40.711Z,99.90
2019-04-07T20:45:29.818Z,99.90
2019-04-07T20:48:13.587Z,99.90
2019-04-07T20:50:50.325Z,99.90
2019-04-07T20:53:28.295Z,99.90
2019-04-07T20:56:02.778Z,99.90
2019-04-07T20:58:56.665Z,99.90
2019-04-07T21:01:44.578Z,99.90
2019-04-07T21:04:17.944Z,99.90
2019-04-07T21:06:59.896Z,99.90
2019-04-07T21:09:35.852Z,99.90
2019-04-07T21:12:12.750Z,99.90
2019-04-07T21:15:04.527Z,99.90
2019-04-07T21:17:31.587Z,99.90
2019-04-07T21:20:11.897Z,99.90
2019-04-07T21:22:47.799Z,99.90
2019-04-07T21:25:23.787Z,99.90
2019-04-07T21:27:54.805Z,99.90
2019-04-07T21:30:44.093Z,99.90
2019-04-07T21:33:22.378Z,99.90
2019-04-07T21:36:08.144Z,99.90
2019-04-07T21:38:58.327Z,99.90
2019-04-07T21:41:47.864Z,99.90
2019-04-07T21:44:27.044Z,99.90
2019-04-07T21:47:12.544Z,99.90
2019-04-07T21:49:45.818Z,99.90
2019-04-07T21:52:20.948Z,99.90
2019-04-07T21:54:53.560Z,99.90
2019-04-07T21:57:24.378Z,99.90
2019-04-07T22:00:13.422Z,99.90
2019-04-07T22:02:55.940Z,99.90
2019-04-07T22:05:31.548Z,99.90
2019-04-07T22:08:10.204Z,99.90
2019-04-07T22:10:36.851Z,99.90
2019-04-07T22:13:08.327Z,99.90
2019-04-07T22:15:45.838Z,99.90
2019-04-07T22:18:13.128Z,99.90
2019-04-07T22:20:44.144Z,99.90
2019-04-07T22:23:15.122Z,99.90
2019-04-07T22:25:51.560Z,99.90
2019-04-07T22:28:22.801Z,99.90
2019-04-07T22:30:55.284Z,99.90
2019-04-07T22:33:30.010Z,99.90
2019-04-07T22:35:59.707Z,99.90
2019-04-07T22:38:31.527Z,99.90
2019-04-07T22:41:02.755Z,99.90
2019-04-07T22:43:34.934Z,99.90
2019-04-07T22:46:16.480Z,99.90
2019-04-07T22:48:38.794Z,99.90
2019-04-07T22:51:12.387Z,99.90
2019-04-07T22:53:43.316Z,99.90
2019-04-07T22:56:14.386Z,99.90
2019-04-07T22:58:46.436Z,99.90
2019-04-07T23:01:17.490Z,99.90
2019-04-07T23:03:49.627Z,99.90
2019-04-07T23:06:21.082Z,99.90
2019-04-07T23:08:53.033Z,99.90
2019-04-07T23:11:24.148Z,99.90
2019-04-07T23:13:55.526Z,99.90
2019-04-07T23:16:27.524Z,99.90
2019-04-07T23:18:58.622Z,99.90
2019-04-07T23:21:30.055Z,99.90
2019-04-07T23:24:04.240Z,99.90
2019-04-07T23:26:35.329Z,99.90
2019-04-07T23:29:06.424Z,99.90
2019-04-07T23:31:38.382Z,99.90
2019-04-07T23:34:10.502Z,99.90
2019-04-07T23:36:42.481Z,99.90
2019-04-07T23:39:13.587Z,99.90
2019-04-07T23:41:44.528Z,99.90
2019-04-07T23:44:16.074Z,99.90
2019-04-07T23:46:47.711Z,99.90
2019-04-07T23:49:19.075Z,99.90
2019-04-07T23:51:51.050Z,99.90
2019-04-07T23:54:22.589Z,99.90
2019-04-07T23:56:54.158Z,99.90
2019-04-07T23:59:27.089Z,99.90
